Startpagina
METAR-TAF:

METAR-TAF

Vliegvelden :

Flughafen Wien-Schwechat

Wenen, Oostenrijk

breedte: 48-07N, lengte: 016-34E, hoogte: 183 m

Actueel weer

Dit bericht is 16 minuten geleden gemaakt, om 23:20 UTC
Wind 7 kt uit het zuiden
Temperatuur 19°C
Vochtigheid 68%
Druk 1019 hPa
Zicht 10 km of meer
geen wolken onder 1500 m en geen cumulonimbus

METAR: LOWW 182320Z 17007KT CAVOK 19/13 Q1019 NOSIG

Tijdstip: 01:36 (23:36 UTC)

Verwachting

Dit bericht is 3 uur en het 21 minuten geleden gemaakt, om 20:15 UTC
Verwachting geldig van 18 om 21 UTC tot 20 om 03 UTC
Wind 2 kt uit variabele richting
Zicht 10 km of meer
geen wolken onder 1500 m en geen cumulonimbus
Tijdelijke
van 19 om 10 UTC tot 19 om 16 UTC
Wind 5 kt uit het oostnoordoosten

TAF: LOWW 182015Z 1821/2003 VRB02KT CAVOK TX32/1914Z TN16/1904Z TEMPO 1910/1916 06005KT

Waarnemingen en weersverwachtingen van meer dan 4000 vliegvelden (METAR en TAF).

De beschikbare stations zijn de gele en rode punten op de kaart.

Ga met uw muis naar het station om de naam te zien.

Klik dan om waarnemingen en weersverwachtingen te zien.

kaart wijzigen: klik op de groene knoppen met een zwart kruis om in te zoomen, op de groene knop met een streepje om uit te zoomen of op de groene pijlen voor aangrenzende kaarten.


METAR-TAF: